Time;durP1;ratioP1;P1;durP2;ratioP2;P2;SDS_P1;SDS_P2;PMS_P1;PMS_P2;Temp;Humidity;BMP_temperature;BMP_pressure;BME280_temperature;BME280_humidity;BME280_pressure;Samples;Min_cycle;Max_cycle;Signal;HPM_P1;HPM_P2
2023/12/03 00:00:09;;;;;;;;;;;0.10;99.90;;;;;;5081188;28;19975;-76
2023/12/03 00:02:37;;;;;;;;;;;0.10;99.90;;;;;;5079773;28;19979;-76
2023/12/03 00:05:04;;;;;;;;;;;0.10;99.90;;;;;;5079333;28;20506;-76
2023/12/03 00:07:31;;;;;;;;;;;0.00;99.90;;;;;;5080472;28;20579;-75
2023/12/03 00:09:58;;;;;;;;;;;0.00;99.90;;;;;;5083139;28;20480;-76
2023/12/03 00:12:26;;;;;;;;;;;0.00;99.90;;;;;;5082839;28;19999;-75
2023/12/03 00:14:53;;;;;;;;;;;0.00;99.90;;;;;;5075094;28;19994;-75
2023/12/03 00:17:19;;;;;;;;;;;0.10;99.90;;;;;;5078105;28;19998;-76
2023/12/03 00:19:46;;;;;;;;;;;0.10;99.90;;;;;;5080142;28;20066;-76
2023/12/03 00:22:12;;;;;;;;;;;0.00;99.90;;;;;;5078456;28;19975;-75
2023/12/03 00:24:39;;;;;;;;;;;0.00;99.90;;;;;;5081332;28;20033;-76
2023/12/03 00:27:05;;;;;;;;;;;0.00;99.90;;;;;;5077370;28;19979;-76
2023/12/03 00:29:33;;;;;;;;;;;0.00;99.90;;;;;;5076771;28;19979;-77
2023/12/03 00:32:00;;;;;;;;;;;0.10;99.90;;;;;;5076853;28;19999;-76
2023/12/03 00:34:26;;;;;;;;;;;0.00;99.90;;;;;;5075528;28;20006;-76
2023/12/03 00:36:53;;;;;;;;;;;0.10;99.90;;;;;;5080583;28;19979;-76
2023/12/03 00:39:19;;;;;;;;;;;0.00;99.90;;;;;;5076630;28;19993;-75
2023/12/03 00:41:46;;;;;;;;;;;0.00;99.90;;;;;;5081042;28;20411;-76
2023/12/03 00:44:13;;;;;;;;;;;0.10;99.90;;;;;;5080041;28;20117;-76
2023/12/03 00:46:40;;;;;;;;;;;0.00;99.90;;;;;;5066599;28;22042;-76
2023/12/03 00:49:07;;;;;;;;;;;0.10;99.90;;;;;;5063003;28;20032;-76
2023/12/03 00:51:33;;;;;;;;;;;0.00;99.90;;;;;;5059590;28;20017;-77
2023/12/03 00:54:00;;;;;;;;;;;0.00;99.90;;;;;;5059942;28;19986;-76
2023/12/03 00:56:27;;;;;;;;;;;0.00;99.90;;;;;;5062588;28;20014;-76
2023/12/03 00:58:53;;;;;;;;;;;0.00;99.90;;;;;;5056731;28;19979;-76
2023/12/03 01:01:20;;;;;;;;;;;0.10;99.90;;;;;;5067011;28;19995;-77
2023/12/03 01:03:48;;;;;;;;;;;0.00;99.90;;;;;;5077836;28;19975;-76
2023/12/03 01:06:14;;;;;;;;;;;0.00;99.90;;;;;;5077877;28;20392;-76
2023/12/03 01:08:41;;;;;;;;;;;0.10;99.90;;;;;;5079483;28;19985;-77
2023/12/03 01:11:08;;;;;;;;;;;0.00;99.90;;;;;;5078114;28;20080;-77
2023/12/03 01:13:34;;;;;;;;;;;0.00;99.90;;;;;;5081835;28;19986;-76
2023/12/03 01:16:01;;;;;;;;;;;0.00;99.90;;;;;;5066356;28;20010;-76
2023/12/03 01:18:27;;;;;;;;;;;0.00;99.90;;;;;;5054369;28;19975;-77
2023/12/03 01:20:55;;;;;;;;;;;0.00;99.90;;;;;;5053281;28;19994;-76
2023/12/03 01:23:22;;;;;;;;;;;0.00;99.90;;;;;;5054743;28;19983;-76
2023/12/03 01:25:48;;;;;;;;;;;0.00;99.90;;;;;;5055114;28;19998;-76
2023/12/03 01:28:16;;;;;;;;;;;0.00;99.90;;;;;;5059415;28;20392;-76
2023/12/03 01:30:43;;;;;;;;;;;0.00;99.90;;;;;;5062637;28;20082;-75
2023/12/03 01:33:09;;;;;;;;;;;0.00;99.90;;;;;;5079280;28;20586;-77
2023/12/03 01:35:36;;;;;;;;;;;0.00;99.90;;;;;;5077714;28;20090;-75
2023/12/03 01:38:04;;;;;;;;;;;0.00;99.90;;;;;;5080384;28;20358;-77
2023/12/03 01:40:30;;;;;;;;;;;0.00;99.90;;;;;;5076566;28;20359;-76
2023/12/03 01:42:57;;;;;;;;;;;0.00;99.90;;;;;;5080703;28;19982;-75
2023/12/03 01:45:23;;;;;;;;;;;0.00;99.90;;;;;;5075961;28;19998;-74
2023/12/03 01:47:50;;;;;;;;;;;0.00;99.90;;;;;;5078016;28;20022;-76
2023/12/03 01:50:16;;;;;;;;;;;0.00;99.90;;;;;;5075313;28;20353;-76
2023/12/03 01:52:43;;;;;;;;;;;0.00;99.90;;;;;;5076690;28;20484;-76
2023/12/03 01:55:12;;;;;;;;;;;0.00;99.90;;;;;;5077147;28;20376;-77
2023/12/03 01:57:39;;;;;;;;;;;0.00;99.90;;;;;;5078767;28;20010;-76
2023/12/03 02:00:06;;;;;;;;;;;0.00;99.90;;;;;;5077543;28;20211;-77
2023/12/03 02:02:33;;;;;;;;;;;0.00;99.90;;;;;;5079954;28;20061;-76
2023/12/03 02:04:59;;;;;;;;;;;0.00;99.90;;;;;;5080406;28;20002;-76
2023/12/03 02:07:26;;;;;;;;;;;0.00;99.90;;;;;;5077727;28;19979;-76
2023/12/03 02:09:53;;;;;;;;;;;0.00;99.90;;;;;;5081363;28;19986;-75
2023/12/03 02:12:21;;;;;;;;;;;0.00;99.90;;;;;;5078383;28;20457;-76
2023/12/03 02:14:47;;;;;;;;;;;0.00;99.90;;;;;;5081380;28;20498;-77
2023/12/03 02:17:14;;;;;;;;;;;0.00;99.90;;;;;;5082395;28;20554;-77
2023/12/03 02:19:40;;;;;;;;;;;0.00;99.90;;;;;;5080027;28;20071;-76
2023/12/03 02:22:07;;;;;;;;;;;0.00;99.90;;;;;;5074682;28;19979;-76
2023/12/03 02:24:35;;;;;;;;;;;0.00;99.90;;;;;;5076328;28;19998;-76
2023/12/03 02:27:01;;;;;;;;;;;0.00;99.90;;;;;;5075135;28;19976;-77
2023/12/03 02:29:28;;;;;;;;;;;0.00;99.90;;;;;;5078533;28;19980;-76
2023/12/03 02:31:54;;;;;;;;;;;0.00;99.90;;;;;;5074851;28;20472;-75
2023/12/03 02:34:21;;;;;;;;;;;0.00;99.90;;;;;;5081030;28;19991;-76
2023/12/03 02:36:47;;;;;;;;;;;0.00;99.90;;;;;;5075561;28;19982;-76
2023/12/03 02:39:14;;;;;;;;;;;0.00;99.90;;;;;;5080092;28;19990;-76
2023/12/03 02:41:42;;;;;;;;;;;0.00;99.90;;;;;;5076638;28;19971;-77
2023/12/03 02:44:10;;;;;;;;;;;0.00;99.90;;;;;;5076119;28;19979;-76
2023/12/03 02:46:36;;;;;;;;;;;0.00;99.90;;;;;;5076581;28;20111;-76
2023/12/03 02:49:03;;;;;;;;;;;0.00;99.90;;;;;;5074243;28;19981;-77
2023/12/03 02:51:29;;;;;;;;;;;0.00;99.90;;;;;;5076264;28;19998;-75
2023/12/03 02:53:56;;;;;;;;;;;0.00;99.90;;;;;;5076058;28;19983;-76
2023/12/03 02:56:22;;;;;;;;;;;0.00;99.90;;;;;;5075606;28;19982;-77
2023/12/03 02:58:50;;;;;;;;;;;0.00;99.90;;;;;;5076037;28;19975;-76
2023/12/03 03:01:17;;;;;;;;;;;0.00;99.90;;;;;;5079127;28;19999;-76
2023/12/03 03:03:43;;;;;;;;;;;0.00;99.90;;;;;;5075659;28;19976;-76
2023/12/03 03:06:10;;;;;;;;;;;0.00;99.90;;;;;;5081907;28;20010;-76
2023/12/03 03:08:36;;;;;;;;;;;0.00;99.90;;;;;;5079017;28;19971;-77
2023/12/03 03:11:03;;;;;;;;;;;0.00;99.90;;;;;;5073313;28;19986;-77
2023/12/03 03:13:29;;;;;;;;;;;0.00;99.90;;;;;;5076938;28;19979;-76
2023/12/03 03:15:57;;;;;;;;;;;0.00;99.90;;;;;;5078227;28;20002;-76
2023/12/03 03:18:24;;;;;;;;;;;0.00;99.90;;;;;;5074267;28;19976;-76
2023/12/03 03:20:50;;;;;;;;;;;0.00;99.90;;;;;;5078334;28;19975;-77
2023/12/03 03:23:17;;;;;;;;;;;0.00;99.90;;;;;;5077664;28;19975;-77
2023/12/03 03:25:43;;;;;;;;;;;0.00;99.90;;;;;;5076728;28;19995;-75
2023/12/03 03:28:10;;;;;;;;;;;0.00;99.90;;;;;;5076289;28;19979;-75
2023/12/03 03:30:36;;;;;;;;;;;0.00;99.90;;;;;;5077109;28;19992;-77
2023/12/03 03:33:05;;;;;;;;;;;0.00;99.90;;;;;;5078751;28;20003;-76
2023/12/03 03:35:33;;;;;;;;;;;0.00;99.90;;;;;;5075901;28;19999;-76
2023/12/03 03:37:59;;;;;;;;;;;0.00;99.90;;;;;;5074019;28;19980;-76
2023/12/03 03:40:26;;;;;;;;;;;-0.10;99.90;;;;;;5075727;28;19975;-77
2023/12/03 03:42:52;;;;;;;;;;;-0.10;99.90;;;;;;5078475;28;19975;-76
2023/12/03 03:45:19;;;;;;;;;;;-0.10;99.90;;;;;;5073920;28;19998;-76
2023/12/03 03:47:45;;;;;;;;;;;-0.10;99.90;;;;;;5078534;28;19985;-76
2023/12/03 03:50:13;;;;;;;;;;;-0.10;99.90;;;;;;5075082;28;20074;-77
2023/12/03 03:52:40;;;;;;;;;;;-0.10;99.90;;;;;;5076176;28;20002;-76
2023/12/03 03:55:07;;;;;;;;;;;-0.10;99.90;;;;;;5074906;28;19991;-75
2023/12/03 03:57:34;;;;;;;;;;;-0.10;99.90;;;;;;5073658;28;19986;-76
2023/12/03 04:00:00;;;;;;;;;;;-0.10;99.90;;;;;;5076449;28;20354;-76
2023/12/03 04:02:27;;;;;;;;;;;-0.10;99.90;;;;;;5073842;28;19991;-76
2023/12/03 04:04:53;;;;;;;;;;;-0.10;99.90;;;;;;5078872;28;20060;-75
2023/12/03 04:07:21;;;;;;;;;;;-0.10;99.90;;;;;;5075942;28;19991;-76
2023/12/03 04:09:48;;;;;;;;;;;-0.10;99.90;;;;;;5081611;28;20579;-76
2023/12/03 04:12:15;;;;;;;;;;;-0.10;99.90;;;;;;5077623;28;20389;-75
2023/12/03 04:14:41;;;;;;;;;;;-0.10;99.90;;;;;;5080498;28;20033;-76
2023/12/03 04:17:08;;;;;;;;;;;-0.20;99.90;;;;;;5080016;28;19994;-76
2023/12/03 04:19:35;;;;;;;;;;;-0.20;99.90;;;;;;5081501;28;20057;-76
2023/12/03 04:22:01;;;;;;;;;;;-0.20;99.90;;;;;;5078757;28;19979;-76
2023/12/03 04:24:29;;;;;;;;;;;-0.20;99.90;;;;;;5081183;28;20590;-76
2023/12/03 04:26:55;;;;;;;;;;;-0.20;99.90;;;;;;5082715;28;20005;-76
2023/12/03 04:29:22;;;;;;;;;;;-0.20;99.90;;;;;;5079835;28;19978;-76
2023/12/03 04:31:49;;;;;;;;;;;-0.20;99.90;;;;;;5077103;28;19999;-76
2023/12/03 04:34:15;;;;;;;;;;;-0.20;99.90;;;;;;5078884;28;20006;-76
2023/12/03 04:36:43;;;;;;;;;;;-0.20;99.90;;;;;;5081344;28;20009;-76
2023/12/03 04:39:09;;;;;;;;;;;-0.30;99.90;;;;;;5073547;28;19975;-76
2023/12/03 04:41:38;;;;;;;;;;;-0.30;99.90;;;;;;5068951;28;19979;-75
2023/12/03 04:44:05;;;;;;;;;;;-0.30;99.90;;;;;;5075674;28;20068;-76
2023/12/03 04:46:31;;;;;;;;;;;-0.30;99.90;;;;;;5077958;28;20053;-76
2023/12/03 04:48:58;;;;;;;;;;;-0.30;99.90;;;;;;5074794;28;20698;-76
2023/12/03 04:51:24;;;;;;;;;;;-0.30;99.90;;;;;;5076440;28;20033;-76
2023/12/03 04:53:51;;;;;;;;;;;-0.30;99.90;;;;;;5073883;28;19995;-76
2023/12/03 04:56:18;;;;;;;;;;;-0.30;99.90;;;;;;5077982;28;20098;-76
2023/12/03 04:58:45;;;;;;;;;;;-0.40;99.90;;;;;;5073028;28;20002;-76
2023/12/03 05:01:13;;;;;;;;;;;-0.30;99.90;;;;;;5074800;28;20676;-75
2023/12/03 05:03:39;;;;;;;;;;;-0.40;99.90;;;;;;5076991;28;19987;-76
2023/12/03 05:06:06;;;;;;;;;;;-0.40;99.90;;;;;;5086331;28;19998;-76
2023/12/03 05:08:33;;;;;;;;;;;-0.40;99.90;;;;;;5082065;28;19998;-76
2023/12/03 05:11:03;;;;;;;;;;;-0.40;99.90;;;;;;5079621;28;20062;-76
2023/12/03 05:13:29;;;;;;;;;;;-0.40;99.90;;;;;;5078651;28;20021;-75
2023/12/03 05:15:57;;;;;;;;;;;-0.40;99.90;;;;;;5080940;28;20385;-76
2023/12/03 05:18:24;;;;;;;;;;;-0.50;99.90;;;;;;5080991;28;19994;-75
2023/12/03 05:20:50;;;;;;;;;;;-0.50;99.90;;;;;;5077899;28;19976;-75
2023/12/03 05:23:17;;;;;;;;;;;-0.50;99.90;;;;;;5080194;28;19974;-76
2023/12/03 05:25:43;;;;;;;;;;;-0.50;99.90;;;;;;5079959;28;19991;-76
2023/12/03 05:28:10;;;;;;;;;;;-0.50;99.90;;;;;;5078058;28;19975;-76
2023/12/03 05:30:36;;;;;;;;;;;-0.50;99.90;;;;;;5078397;28;19991;-75
2023/12/03 05:33:04;;;;;;;;;;;-0.50;99.90;;;;;;5079600;28;19991;-75
2023/12/03 05:35:31;;;;;;;;;;;-0.60;99.90;;;;;;5080977;28;19999;-75
2023/12/03 05:37:57;;;;;;;;;;;-0.60;99.90;;;;;;5079063;28;19985;-76
2023/12/03 05:40:24;;;;;;;;;;;-0.60;99.90;;;;;;5072851;28;19975;-76
2023/12/03 05:42:50;;;;;;;;;;;-0.60;99.90;;;;;;5075128;28;19976;-76
2023/12/03 05:45:17;;;;;;;;;;;-0.60;99.90;;;;;;5074995;28;19991;-76
2023/12/03 05:47:44;;;;;;;;;;;-0.60;99.90;;;;;;5060283;28;20369;-76
2023/12/03 05:50:12;;;;;;;;;;;-0.60;99.90;;;;;;5064781;28;19983;-76
2023/12/03 05:52:39;;;;;;;;;;;-0.60;99.90;;;;;;5063167;28;19991;-76
2023/12/03 05:55:06;;;;;;;;;;;-0.60;99.90;;;;;;5065925;28;20751;-76
2023/12/03 05:57:32;;;;;;;;;;;-0.60;99.90;;;;;;5064543;28;19979;-75
2023/12/03 05:59:59;;;;;;;;;;;-0.70;99.90;;;;;;5060987;28;19979;-76
2023/12/03 06:02:25;;;;;;;;;;;-0.70;99.90;;;;;;5071723;28;20395;-75
2023/12/03 06:04:52;;;;;;;;;;;-0.70;99.90;;;;;;5081911;28;20042;-76
2023/12/03 06:07:20;;;;;;;;;;;-0.70;99.90;;;;;;5083511;28;19975;-75
2023/12/03 06:09:46;;;;;;;;;;;-0.70;99.90;;;;;;5082815;28;19987;-75
2023/12/03 06:12:13;;;;;;;;;;;-0.80;99.90;;;;;;5078786;28;19975;-75
2023/12/03 06:14:39;;;;;;;;;;;-0.80;99.90;;;;;;5078302;28;19999;-75
2023/12/03 06:17:06;;;;;;;;;;;-0.70;99.90;;;;;;5076960;28;19991;-76
2023/12/03 06:19:33;;;;;;;;;;;-0.80;99.90;;;;;;5081539;28;20060;-75
2023/12/03 06:21:59;;;;;;;;;;;-0.80;99.90;;;;;;5077257;28;19987;-76
2023/12/03 06:24:27;;;;;;;;;;;-0.80;99.90;;;;;;5079803;28;19995;-75
2023/12/03 06:26:54;;;;;;;;;;;-0.80;99.90;;;;;;5077961;28;19975;-75
2023/12/03 06:29:20;;;;;;;;;;;-0.80;99.90;;;;;;5076414;28;19979;-76
2023/12/03 06:31:47;;;;;;;;;;;-0.80;99.90;;;;;;5073028;28;19999;-76
2023/12/03 06:34:15;;;;;;;;;;;-0.80;99.90;;;;;;5079204;28;20356;-75
2023/12/03 06:36:42;;;;;;;;;;;-0.80;99.90;;;;;;5074035;28;19975;-75
2023/12/03 06:39:08;;;;;;;;;;;-0.80;99.90;;;;;;5076223;28;19975;-75
2023/12/03 06:41:36;;;;;;;;;;;-0.80;99.90;;;;;;5079094;28;20029;-75
2023/12/03 06:44:03;;;;;;;;;;;-0.80;99.90;;;;;;5075252;28;20267;-76
2023/12/03 06:46:29;;;;;;;;;;;-0.90;99.90;;;;;;5081906;28;19999;-76
2023/12/03 06:48:56;;;;;;;;;;;-0.90;99.90;;;;;;5079431;28;19994;-75
2023/12/03 06:51:22;;;;;;;;;;;-0.90;99.90;;;;;;5078690;28;19986;-75
2023/12/03 06:53:49;;;;;;;;;;;-0.90;99.90;;;;;;5080261;28;20002;-76
2023/12/03 06:56:15;;;;;;;;;;;-0.90;99.90;;;;;;5082710;28;19998;-75
2023/12/03 06:58:43;;;;;;;;;;;-1.00;99.90;;;;;;5073274;28;19975;-75
2023/12/03 07:01:12;;;;;;;;;;;-1.00;99.90;;;;;;5074040;28;19991;-75
2023/12/03 07:03:39;;;;;;;;;;;-1.00;99.90;;;;;;5080716;28;19990;-75
2023/12/03 07:06:06;;;;;;;;;;;-1.00;99.90;;;;;;5078400;28;19991;-75
2023/12/03 07:08:32;;;;;;;;;;;-1.00;99.90;;;;;;5080499;28;20495;-77
2023/12/03 07:10:59;;;;;;;;;;;-1.00;99.90;;;;;;5075118;28;19979;-76
2023/12/03 07:13:26;;;;;;;;;;;-1.00;99.90;;;;;;5076621;28;20007;-75
2023/12/03 07:15:53;;;;;;;;;;;-1.00;99.90;;;;;;5076884;28;20005;-76
2023/12/03 07:18:21;;;;;;;;;;;-1.10;99.90;;;;;;5076522;28;20400;-76
2023/12/03 07:20:47;;;;;;;;;;;-1.10;99.90;;;;;;5077640;28;19991;-75
2023/12/03 07:23:14;;;;;;;;;;;-1.10;99.90;;;;;;5081841;28;19975;-76
2023/12/03 07:25:40;;;;;;;;;;;-1.10;99.90;;;;;;5072155;28;19999;-76
2023/12/03 07:28:07;;;;;;;;;;;-1.10;99.90;;;;;;5073574;28;19975;-76
2023/12/03 07:30:33;;;;;;;;;;;-1.10;99.90;;;;;;5078070;28;20002;-76
2023/12/03 07:33:01;;;;;;;;;;;-1.10;99.90;;;;;;5077081;28;20119;-76
2023/12/03 07:35:28;;;;;;;;;;;-1.20;99.90;;;;;;5079058;28;20013;-76
2023/12/03 07:37:55;;;;;;;;;;;-1.20;99.90;;;;;;5075893;28;20306;-76
2023/12/03 07:40:21;;;;;;;;;;;-1.20;99.90;;;;;;5076712;28;19975;-77
2023/12/03 07:42:48;;;;;;;;;;;-1.20;99.90;;;;;;5082475;28;19986;-76
2023/12/03 07:45:14;;;;;;;;;;;-1.20;99.90;;;;;;5076620;28;20472;-76
2023/12/03 07:47:41;;;;;;;;;;;-1.20;99.90;;;;;;5073946;28;19998;-76
2023/12/03 07:50:09;;;;;;;;;;;-1.20;99.90;;;;;;5077407;28;19975;-76
2023/12/03 07:52:36;;;;;;;;;;;-1.20;99.90;;;;;;5078306;28;19979;-77
2023/12/03 07:55:03;;;;;;;;;;;-1.20;99.90;;;;;;5081128;28;19999;-77
2023/12/03 07:57:29;;;;;;;;;;;-1.20;99.90;;;;;;5079788;28;20422;-76
2023/12/03 07:59:56;;;;;;;;;;;-1.30;99.90;;;;;;5078270;28;19983;-76
2023/12/03 08:02:22;;;;;;;;;;;-1.30;99.90;;;;;;5073123;28;19991;-76
2023/12/03 08:04:49;;;;;;;;;;;-1.30;99.90;;;;;;5078350;28;20002;-76
2023/12/03 08:07:17;;;;;;;;;;;-1.30;99.90;;;;;;5074447;28;20352;-77
2023/12/03 08:09:43;;;;;;;;;;;-1.30;99.90;;;;;;5073614;28;19979;-75
2023/12/03 08:12:10;;;;;;;;;;;-1.30;99.90;;;;;;5075347;28;19976;-76
2023/12/03 08:14:36;;;;;;;;;;;-1.30;99.90;;;;;;5075669;28;20004;-76
2023/12/03 08:17:03;;;;;;;;;;;-1.30;99.90;;;;;;5062385;28;20007;-76
2023/12/03 08:19:30;;;;;;;;;;;-1.30;99.90;;;;;;5060546;28;19986;-75
2023/12/03 08:21:56;;;;;;;;;;;-1.30;99.90;;;;;;5057514;28;19976;-76
2023/12/03 08:24:24;;;;;;;;;;;-1.40;99.90;;;;;;5058676;28;20187;-76
2023/12/03 08:26:51;;;;;;;;;;;-1.30;99.90;;;;;;5057893;28;20415;-75
2023/12/03 08:29:17;;;;;;;;;;;-1.30;99.90;;;;;;5054813;28;19975;-76
2023/12/03 08:31:44;;;;;;;;;;;-1.40;99.90;;;;;;5054989;28;19991;-75
2023/12/03 08:34:11;;;;;;;;;;;-1.40;99.90;;;;;;5057618;28;19995;-76
2023/12/03 08:36:38;;;;;;;;;;;-1.40;99.90;;;;;;5058773;28;19982;-75
2023/12/03 08:39:07;;;;;;;;;;;-1.40;99.90;;;;;;5058891;28;20037;-75
2023/12/03 08:41:35;;;;;;;;;;;-1.40;99.90;;;;;;5059345;28;19982;-76
2023/12/03 08:44:02;;;;;;;;;;;-1.40;99.90;;;;;;5058531;28;20695;-75
2023/12/03 08:46:29;;;;;;;;;;;-1.40;99.90;;;;;;5056577;28;20007;-75
2023/12/03 08:48:56;;;;;;;;;;;-1.40;99.90;;;;;;5061251;28;19979;-75
2023/12/03 08:51:22;;;;;;;;;;;-1.40;99.90;;;;;;5061620;28;20734;-75
2023/12/03 08:53:49;;;;;;;;;;;-1.40;99.90;;;;;;5056137;28;19987;-75
2023/12/03 08:56:15;;;;;;;;;;;-1.40;99.90;;;;;;5058210;28;20013;-75
2023/12/03 08:58:43;;;;;;;;;;;-1.40;99.90;;;;;;5058500;28;19971;-76
2023/12/03 09:01:10;;;;;;;;;;;-1.40;99.90;;;;;;5063529;28;19991;-77
2023/12/03 09:03:39;;;;;;;;;;;-1.40;99.90;;;;;;5061252;28;19975;-76
2023/12/03 09:06:06;;;;;;;;;;;-1.40;99.90;;;;;;5055266;28;20003;-75
2023/12/03 09:08:33;;;;;;;;;;;-1.40;99.90;;;;;;5057965;28;20727;-76
2023/12/03 09:11:00;;;;;;;;;;;-1.40;99.90;;;;;;5057278;28;19980;-76
2023/12/03 09:13:26;;;;;;;;;;;-1.40;99.90;;;;;;5060361;28;19999;-76
2023/12/03 09:15:56;;;;;;;;;;;-1.40;99.90;;;;;;5055109;28;19999;-76
2023/12/03 09:18:22;;;;;;;;;;;-1.40;99.90;;;;;;5061379;28;21757;-75
2023/12/03 09:20:49;;;;;;;;;;;-1.40;99.90;;;;;;5054813;28;19991;-77
2023/12/03 09:23:15;;;;;;;;;;;-1.40;99.90;;;;;;5060675;28;19975;-77
2023/12/03 09:25:42;;;;;;;;;;;-1.50;99.90;;;;;;5056122;28;20002;-76
2023/12/03 09:28:08;;;;;;;;;;;-1.50;99.90;;;;;;5059145;28;19976;-76
2023/12/03 09:30:35;;;;;;;;;;;-1.40;99.90;;;;;;5058726;28;20044;-78
2023/12/03 09:33:03;;;;;;;;;;;-1.50;99.90;;;;;;5063318;28;19991;-76
2023/12/03 09:35:29;;;;;;;;;;;-1.40;99.90;;;;;;5049906;28;20061;-76
2023/12/03 09:37:56;;;;;;;;;;;-1.40;99.90;;;;;;5052340;28;19979;-77
2023/12/03 09:40:23;;;;;;;;;;;-1.40;99.90;;;;;;5051130;28;19982;-76
2023/12/03 09:42:50;;;;;;;;;;;-1.40;99.90;;;;;;5050292;28;19982;-76
2023/12/03 09:45:19;;;;;;;;;;;-1.40;99.90;;;;;;5057056;28;20569;-77
2023/12/03 09:47:48;;;;;;;;;;;-1.40;99.90;;;;;;5062664;28;20416;-78
2023/12/03 09:50:16;;;;;;;;;;;-1.50;99.90;;;;;;5063713;28;20066;-76
2023/12/03 09:52:43;;;;;;;;;;;-1.50;99.90;;;;;;5061683;28;19976;-77
2023/12/03 09:55:10;;;;;;;;;;;-1.40;99.90;;;;;;5061610;28;20002;-77
2023/12/03 09:57:37;;;;;;;;;;;-1.40;99.90;;;;;;5063829;28;19987;-78
2023/12/03 10:00:05;;;;;;;;;;;-1.40;99.90;;;;;;5063639;28;20033;-76
2023/12/03 10:02:33;;;;;;;;;;;-1.40;99.90;;;;;;5080805;28;19990;-77
2023/12/03 10:04:59;;;;;;;;;;;-1.40;99.90;;;;;;5079176;28;20126;-76
2023/12/03 10:07:28;;;;;;;;;;;-1.40;99.90;;;;;;5076635;28;19983;-77
2023/12/03 10:09:57;;;;;;;;;;;-1.40;99.90;;;;;;5075809;28;19975;-78
2023/12/03 10:12:25;;;;;;;;;;;-1.40;99.90;;;;;;5077561;28;19982;-79
2023/12/03 10:14:52;;;;;;;;;;;-1.30;99.90;;;;;;5080203;28;21042;-80
2023/12/03 10:17:20;;;;;;;;;;;-1.40;99.90;;;;;;5060717;28;19995;-80
2023/12/03 10:19:47;;;;;;;;;;;-1.30;99.90;;;;;;5058803;28;19983;-78
2023/12/03 10:22:14;;;;;;;;;;;-1.30;99.90;;;;;;5059072;28;19975;-76
2023/12/03 10:24:48;;;;;;;;;;;-1.30;99.90;;;;;;5057957;28;19995;-77
2023/12/03 10:27:15;;;;;;;;;;;-1.30;99.90;;;;;;5058897;28;19974;-77
2023/12/03 10:29:41;;;;;;;;;;;-1.30;99.90;;;;;;5057953;28;19980;-75
2023/12/03 10:32:09;;;;;;;;;;;-1.30;99.90;;;;;;5055852;28;20453;-77
2023/12/03 10:34:36;;;;;;;;;;;-1.20;99.90;;;;;;5057347;28;20052;-75
2023/12/03 10:37:02;;;;;;;;;;;-1.20;99.90;;;;;;5052205;28;19979;-76
2023/12/03 10:39:31;;;;;;;;;;;-1.20;99.90;;;;;;5055846;28;19979;-80
2023/12/03 10:41:58;;;;;;;;;;;-1.20;99.90;;;;;;5057714;28;20399;-78
2023/12/03 10:44:27;;;;;;;;;;;-1.10;99.90;;;;;;5059582;28;20528;-79
2023/12/03 10:46:56;;;;;;;;;;;-1.10;99.90;;;;;;5060714;28;19999;-79
2023/12/03 10:49:24;;;;;;;;;;;-1.10;99.90;;;;;;5060216;28;19980;-82
2023/12/03 10:51:54;;;;;;;;;;;-1.10;99.90;;;;;;5050141;28;20046;-76
2023/12/03 10:54:20;;;;;;;;;;;-1.00;99.90;;;;;;5051202;28;19999;-81
2023/12/03 10:56:49;;;;;;;;;;;-1.00;99.90;;;;;;5051916;28;19980;-79
2023/12/03 10:59:21;;;;;;;;;;;-1.00;99.90;;;;;;5054767;28;20011;-78
2023/12/03 11:01:51;;;;;;;;;;;-0.90;99.90;;;;;;5065879;28;19999;-81
2023/12/03 11:04:30;;;;;;;;;;;-0.90;99.90;;;;;;5081099;28;19982;-79
2023/12/03 11:06:58;;;;;;;;;;;-0.90;99.90;;;;;;5073995;28;20296;-79
2023/12/03 11:09:25;;;;;;;;;;;-0.90;99.90;;;;;;5077784;28;19983;-80
2023/12/03 11:11:52;;;;;;;;;;;-0.90;99.90;;;;;;5077191;28;20014;-78
2023/12/03 11:14:19;;;;;;;;;;;-0.90;99.90;;;;;;5076718;28;19995;-77
2023/12/03 11:16:53;;;;;;;;;;;-0.90;99.90;;;;;;5064780;28;19995;-77
2023/12/03 11:19:21;;;;;;;;;;;-0.90;99.90;;;;;;5054169;28;20069;-77
2023/12/03 11:21:52;;;;;;;;;;;-0.80;99.90;;;;;;5052753;28;20003;-75
2023/12/03 11:24:28;;;;;;;;;;;-0.80;99.90;;;;;;5054283;28;19972;-78
2023/12/03 11:26:57;;;;;;;;;;;-0.80;99.90;;;;;;5050490;28;19982;-76
2023/12/03 11:29:38;;;;;;;;;;;-0.80;99.90;;;;;;5056006;28;20046;-76
2023/12/03 11:32:06;;;;;;;;;;;-0.80;99.90;;;;;;5060180;28;20002;-79
2023/12/03 11:34:33;;;;;;;;;;;-0.80;99.90;;;;;;5058354;28;20013;-76
2023/12/03 11:36:59;;;;;;;;;;;-0.80;99.90;;;;;;5064403;28;20439;-76
2023/12/03 11:39:27;;;;;;;;;;;-0.80;99.90;;;;;;5059775;28;19979;-77
2023/12/03 11:41:59;;;;;;;;;;;-0.80;99.90;;;;;;5059222;28;20078;-76
2023/12/03 11:44:25;;;;;;;;;;;-0.80;99.90;;;;;;5061098;28;19995;-76
2023/12/03 11:47:01;;;;;;;;;;;-0.80;99.90;;;;;;5055231;28;20027;-79
2023/12/03 11:49:29;;;;;;;;;;;-0.70;99.90;;;;;;5061141;28;20017;-77
2023/12/03 11:51:56;;;;;;;;;;;-0.70;99.90;;;;;;5064569;28;19975;-78
2023/12/03 11:54:25;;;;;;;;;;;-0.70;99.90;;;;;;5063571;28;20003;-78
2023/12/03 11:56:54;;;;;;;;;;;-0.70;99.90;;;;;;5063162;28;21364;-77
2023/12/03 11:59:20;;;;;;;;;;;-0.70;99.90;;;;;;5058009;28;19979;-77
2023/12/03 12:01:47;;;;;;;;;;;-0.70;99.90;;;;;;5056685;28;20527;-78
2023/12/03 12:04:20;;;;;;;;;;;-0.70;99.90;;;;;;5060163;28;19979;-77
2023/12/03 12:06:47;;;;;;;;;;;-0.60;99.90;;;;;;5060017;28;19975;-77
2023/12/03 12:09:20;;;;;;;;;;;-0.60;99.90;;;;;;5062049;28;19980;-76
2023/12/03 12:11:47;;;;;;;;;;;-0.60;99.90;;;;;;5058213;28;19994;-76
2023/12/03 12:14:14;;;;;;;;;;;-0.50;99.90;;;;;;5059709;28;20061;-77
2023/12/03 12:16:41;;;;;;;;;;;-0.50;99.90;;;;;;5058924;28;20667;-76
2023/12/03 12:19:07;;;;;;;;;;;-0.40;99.90;;;;;;5060407;28;20109;-76
2023/12/03 12:21:34;;;;;;;;;;;-0.40;99.90;;;;;;5052938;28;20365;-77
2023/12/03 12:24:02;;;;;;;;;;;-0.30;99.90;;;;;;5061821;28;20461;-76
2023/12/03 12:26:30;;;;;;;;;;;-0.30;99.90;;;;;;5062317;28;19998;-77
2023/12/03 12:28:56;;;;;;;;;;;-0.20;99.90;;;;;;5058494;28;19975;-77
2023/12/03 12:31:26;;;;;;;;;;;-0.20;99.90;;;;;;5061914;28;19996;-76
2023/12/03 12:33:55;;;;;;;;;;;-0.10;99.90;;;;;;5061151;28;19991;-77
2023/12/03 12:36:21;;;;;;;;;;;-0.10;99.90;;;;;;5057784;28;19999;-76
2023/12/03 12:38:48;;;;;;;;;;;-0.10;99.90;;;;;;5060258;28;19986;-77
2023/12/03 12:41:16;;;;;;;;;;;0.00;99.90;;;;;;5061870;28;20025;-78
2023/12/03 12:43:52;;;;;;;;;;;0.00;99.90;;;;;;5057783;28;19990;-77
2023/12/03 12:46:18;;;;;;;;;;;0.00;99.90;;;;;;5058296;28;19995;-77
2023/12/03 12:48:45;;;;;;;;;;;0.00;99.90;;;;;;5061067;28;19984;-77
2023/12/03 12:51:19;;;;;;;;;;;0.00;99.90;;;;;;5056502;28;19999;-77
2023/12/03 12:53:56;;;;;;;;;;;0.00;99.90;;;;;;5056202;28;19982;-77
2023/12/03 12:56:24;;;;;;;;;;;0.10;99.90;;;;;;5057550;28;20029;-77
2023/12/03 12:58:51;;;;;;;;;;;0.10;99.90;;;;;;5057303;28;19988;-78
2023/12/03 13:01:17;;;;;;;;;;;0.20;99.90;;;;;;5051140;28;20013;-77
2023/12/03 13:03:44;;;;;;;;;;;0.20;99.90;;;;;;5052803;28;19998;-77
2023/12/03 13:06:11;;;;;;;;;;;0.20;99.90;;;;;;5042434;28;19999;-76
2023/12/03 13:08:38;;;;;;;;;;;0.20;99.90;;;;;;5049236;28;20065;-76
2023/12/03 13:11:05;;;;;;;;;;;0.20;99.90;;;;;;5047841;28;19979;-76
2023/12/03 13:13:33;;;;;;;;;;;0.20;99.90;;;;;;5054035;28;20387;-77
2023/12/03 13:16:01;;;;;;;;;;;0.20;99.90;;;;;;5051583;28;20402;-76
2023/12/03 13:18:28;;;;;;;;;;;0.20;99.90;;;;;;5077246;28;20010;-77
2023/12/03 13:20:55;;;;;;;;;;;0.20;99.90;;;;;;5078291;28;19983;-76
2023/12/03 13:23:21;;;;;;;;;;;0.20;99.90;;;;;;5070233;28;19979;-76
2023/12/03 13:25:50;;;;;;;;;;;0.20;99.90;;;;;;5079480;28;19998;-76
2023/12/03 13:28:20;;;;;;;;;;;0.30;99.90;;;;;;5082815;28;19982;-79
2023/12/03 13:30:48;;;;;;;;;;;0.30;99.90;;;;;;5070403;28;20960;-77
2023/12/03 13:33:15;;;;;;;;;;;0.30;99.90;;;;;;5056612;28;20271;-76
2023/12/03 13:35:42;;;;;;;;;;;0.40;99.90;;;;;;5061610;28;20047;-76
2023/12/03 13:38:09;;;;;;;;;;;0.40;99.90;;;;;;5057295;28;20518;-76
2023/12/03 13:40:36;;;;;;;;;;;0.50;99.90;;;;;;5055973;28;20394;-76
2023/12/03 13:43:03;;;;;;;;;;;0.50;99.90;;;;;;5059688;28;20532;-79
2023/12/03 13:45:30;;;;;;;;;;;0.50;99.90;;;;;;5061684;28;20412;-77
2023/12/03 13:47:59;;;;;;;;;;;0.60;99.90;;;;;;5078745;28;19986;-79
2023/12/03 13:50:25;;;;;;;;;;;0.70;99.90;;;;;;5080756;28;20581;-78
2023/12/03 13:52:53;;;;;;;;;;;0.70;99.90;;;;;;5079047;28;19979;-77
2023/12/03 13:55:20;;;;;;;;;;;0.70;99.90;;;;;;5082157;28;20007;-78
2023/12/03 13:57:47;;;;;;;;;;;0.80;99.90;;;;;;5073497;28;20017;-79
2023/12/03 14:00:14;;;;;;;;;;;0.80;99.90;;;;;;5066848;28;20090;-78
2023/12/03 14:02:40;;;;;;;;;;;0.90;99.90;;;;;;5050096;28;19975;-77
2023/12/03 14:05:09;;;;;;;;;;;0.90;99.90;;;;;;5065344;28;20006;-77
2023/12/03 14:07:35;;;;;;;;;;;0.90;99.90;;;;;;5055790;28;20717;-78
2023/12/03 14:10:02;;;;;;;;;;;1.00;99.90;;;;;;5067006;28;19987;-78
2023/12/03 14:12:28;;;;;;;;;;;1.00;99.90;;;;;;5071349;28;20011;-78
2023/12/03 14:14:55;;;;;;;;;;;1.00;99.90;;;;;;5064248;28;20002;-78
2023/12/03 14:17:22;;;;;;;;;;;1.00;99.90;;;;;;5059489;28;19998;-77
2023/12/03 14:19:48;;;;;;;;;;;1.00;99.90;;;;;;5066301;28;19983;-78